createdAt,value
2023-03-21T00:01:31.648Z,10.69
2023-03-21T00:03:58.504Z,10.67
2023-03-21T00:06:28.222Z,10.65
2023-03-21T00:08:58.581Z,9.97
2023-03-21T00:11:25.138Z,10.23
2023-03-21T00:14:02.429Z,10.51
2023-03-21T00:16:35.228Z,10.44
2023-03-21T00:19:06.011Z,9.63
2023-03-21T00:21:59.261Z,10.40
2023-03-21T00:24:22.706Z,9.75
2023-03-21T00:27:15.853Z,10.24
2023-03-21T00:29:49.766Z,10.15
2023-03-21T00:32:22.888Z,10.16
2023-03-21T00:35:11.955Z,9.75
2023-03-21T00:37:46.599Z,9.79
2023-03-21T00:40:27.926Z,10.26
2023-03-21T00:42:59.698Z,10.18
2023-03-21T00:45:27.342Z,10.39
2023-03-21T00:47:58.293Z,10.26
2023-03-21T00:50:28.597Z,10.33
2023-03-21T00:52:55.954Z,10.22
2023-03-21T00:55:22.594Z,9.89
2023-03-21T00:58:02.205Z,10.01
2023-03-21T01:00:30.250Z,10.06
2023-03-21T01:03:08.523Z,10.01
2023-03-21T01:06:07.056Z,9.61
2023-03-21T01:08:51.068Z,10.10
2023-03-21T01:11:24.976Z,9.99
2023-03-21T01:13:59.748Z,10.13
2023-03-21T01:16:31.742Z,9.99
2023-03-21T01:18:59.736Z,10.01
2023-03-21T01:21:26.837Z,10.00
2023-03-21T01:23:56.576Z,10.00
2023-03-21T01:26:26.922Z,9.82
2023-03-21T01:28:56.208Z,9.96
2023-03-21T01:31:23.585Z,9.95
2023-03-21T01:33:53.051Z,9.92
2023-03-21T01:36:23.997Z,10.06
2023-03-21T01:39:00.102Z,10.00
2023-03-21T01:41:41.905Z,9.40
2023-03-21T01:44:19.480Z,10.11
2023-03-21T01:47:22.176Z,9.84
2023-03-21T01:49:46.885Z,9.98
2023-03-21T01:52:29.652Z,10.04
2023-03-21T01:55:04.725Z,9.87
2023-03-21T01:57:52.210Z,10.03
2023-03-21T02:00:38.587Z,9.66
2023-03-21T02:03:15.288Z,9.97
2023-03-21T02:06:01.747Z,9.51
2023-03-21T02:08:39.157Z,9.73
2023-03-21T02:11:10.289Z,9.59
2023-03-21T02:13:37.717Z,8.95
2023-03-21T02:16:26.128Z,9.93
2023-03-21T02:19:04.912Z,9.88
2023-03-21T02:21:58.320Z,9.79
2023-03-21T02:24:38.653Z,9.81
2023-03-21T02:27:11.164Z,9.80
2023-03-21T02:30:04.578Z,9.74
2023-03-21T02:33:19.506Z,9.73
2023-03-21T02:36:26.879Z,9.76
2023-03-21T02:38:56.336Z,9.43
2023-03-21T02:41:40.384Z,9.77
2023-03-21T02:44:42.329Z,9.78
2023-03-21T02:47:23.528Z,9.39
2023-03-21T02:49:53.570Z,9.51
2023-03-21T02:52:37.906Z,9.38
2023-03-21T02:55:20.144Z,9.75
2023-03-21T02:57:52.849Z,9.30
2023-03-21T03:03:34.999Z,9.34
2023-03-21T03:06:13.929Z,9.63
2023-03-21T03:09:12.194Z,9.60
2023-03-21T03:11:43.737Z,9.57
2023-03-21T03:14:46.820Z,9.27
2023-03-21T03:17:51.968Z,9.60
2023-03-21T03:20:43.274Z,9.52
2023-03-21T03:23:32.070Z,9.62
2023-03-21T03:26:07.172Z,9.50
2023-03-21T03:28:53.363Z,9.56
2023-03-21T03:31:34.065Z,9.40
2023-03-21T03:34:07.294Z,9.54
2023-03-21T03:36:39.788Z,9.47
2023-03-21T03:39:10.500Z,9.40
2023-03-21T03:42:12.437Z,9.09
2023-03-21T03:44:42.338Z,9.25
2023-03-21T03:47:32.946Z,9.55
2023-03-21T03:50:39.425Z,9.34
2023-03-21T03:53:18.586Z,9.56
2023-03-21T03:55:46.526Z,9.52
2023-03-21T03:58:44.870Z,9.53
2023-03-21T04:01:17.776Z,9.47
2023-03-21T04:06:35.818Z,9.55
2023-03-21T04:09:18.711Z,9.52
2023-03-21T04:11:47.411Z,9.52
2023-03-21T04:14:14.148Z,9.49
2023-03-21T04:16:43.965Z,9.48
2023-03-21T04:19:20.193Z,9.28
2023-03-21T04:21:47.759Z,9.35
2023-03-21T04:24:17.202Z,9.31
2023-03-21T04:26:43.892Z,9.19
2023-03-21T04:29:10.650Z,9.50
2023-03-21T04:31:45.639Z,9.53
2023-03-21T04:34:15.359Z,9.41
2023-03-21T04:36:46.085Z,9.44
2023-03-21T04:39:13.853Z,9.42
2023-03-21T04:41:46.705Z,9.49
2023-03-21T04:44:15.650Z,9.40
2023-03-21T04:46:45.985Z,9.42
2023-03-21T04:49:27.496Z,9.49
2023-03-21T04:51:58.455Z,9.51
2023-03-21T04:54:27.693Z,9.45
2023-03-21T04:56:56.645Z,9.46
2023-03-21T04:59:26.627Z,9.40
2023-03-21T05:01:54.166Z,9.25
2023-03-21T05:04:23.025Z,9.37
2023-03-21T05:06:49.862Z,9.55
2023-03-21T05:09:16.551Z,9.44
2023-03-21T05:11:43.927Z,9.58
2023-03-21T05:14:25.753Z,8.81
2023-03-21T05:17:01.776Z,9.53
2023-03-21T05:19:35.828Z,9.68
2023-03-21T05:22:12.171Z,9.53
2023-03-21T05:24:50.700Z,9.64
2023-03-21T05:27:38.558Z,9.11
2023-03-21T05:30:21.587Z,9.61
2023-03-21T05:32:48.343Z,9.44
2023-03-21T05:35:15.065Z,9.58
2023-03-21T05:37:44.893Z,9.32
2023-03-21T05:40:14.399Z,9.44
2023-03-21T05:42:47.175Z,9.18
2023-03-21T05:45:14.561Z,9.30
2023-03-21T05:47:41.559Z,9.36
2023-03-21T05:50:09.044Z,9.30
2023-03-21T05:52:37.680Z,9.36
2023-03-21T05:57:48.494Z,9.19
2023-03-21T06:00:15.689Z,9.03
2023-03-21T06:02:42.579Z,9.44
2023-03-21T06:05:13.810Z,9.50
2023-03-21T06:07:40.564Z,9.35
2023-03-21T06:10:10.567Z,9.32
2023-03-21T06:12:37.413Z,9.50
2023-03-21T06:15:06.186Z,9.59
2023-03-21T06:17:41.028Z,9.49
2023-03-21T06:20:08.960Z,9.70
2023-03-21T06:22:36.684Z,9.64
2023-03-21T06:25:11.169Z,9.74
2023-03-21T06:27:38.142Z,9.56
2023-03-21T06:30:07.232Z,9.78
2023-03-21T06:32:37.660Z,9.70
2023-03-21T06:35:07.679Z,9.93
2023-03-21T06:37:35.215Z,9.97
2023-03-21T06:40:01.948Z,10.03
2023-03-21T06:42:30.217Z,10.19
2023-03-21T06:44:57.192Z,10.21
2023-03-21T06:47:27.022Z,10.22
2023-03-21T06:49:59.404Z,10.35
2023-03-21T06:52:26.239Z,9.90
2023-03-21T06:54:53.428Z,9.96
2023-03-21T06:57:22.032Z,10.58
2023-03-21T06:59:48.826Z,10.63
2023-03-21T07:02:20.813Z,10.80
2023-03-21T07:04:47.406Z,10.84
2023-03-21T07:07:14.260Z,10.74
2023-03-21T07:09:41.246Z,11.04
2023-03-21T07:12:10.598Z,10.85
2023-03-21T07:14:45.066Z,11.07
2023-03-21T07:17:17.880Z,11.22
2023-03-21T07:19:47.430Z,11.13
2023-03-21T07:22:17.364Z,11.14
2023-03-21T07:24:45.963Z,11.36
2023-03-21T07:27:17.238Z,11.52
2023-03-21T07:29:44.381Z,11.69
2023-03-21T07:32:14.489Z,11.49
2023-03-21T07:34:47.310Z,11.80
2023-03-21T07:37:32.056Z,11.82
2023-03-21T07:40:00.398Z,12.01
2023-03-21T07:42:28.100Z,12.24
2023-03-21T07:45:01.064Z,11.83
2023-03-21T07:47:29.591Z,12.21
2023-03-21T07:49:56.238Z,12.45
2023-03-21T07:52:25.907Z,11.86
2023-03-21T07:54:58.579Z,11.87
2023-03-21T07:57:25.297Z,11.99
2023-03-21T07:59:52.241Z,12.74
2023-03-21T08:02:20.310Z,12.81
2023-03-21T08:04:52.240Z,12.12
2023-03-21T08:07:24.523Z,12.88
2023-03-21T08:09:51.126Z,12.89
2023-03-21T08:12:19.740Z,12.65
2023-03-21T08:14:52.402Z,12.96
2023-03-21T08:17:22.412Z,13.00
2023-03-21T08:19:49.455Z,13.09
2023-03-21T08:22:19.130Z,13.20
2023-03-21T08:24:45.740Z,13.31
2023-03-21T08:30:02.670Z,12.30
2023-03-21T08:32:42.250Z,12.45
2023-03-21T08:35:13.801Z,13.37
2023-03-21T08:37:44.520Z,13.45
2023-03-21T08:40:21.337Z,13.51
2023-03-21T08:42:56.852Z,13.62
2023-03-21T08:45:31.714Z,13.39
2023-03-21T08:47:58.897Z,13.60
2023-03-21T08:50:40.810Z,13.63
2023-03-21T08:53:09.489Z,13.55
2023-03-21T08:55:36.456Z,13.59
2023-03-21T08:58:11.750Z,13.80
2023-03-21T09:00:41.761Z,13.56
2023-03-21T09:03:11.206Z,13.56
2023-03-21T09:05:38.725Z,13.88
2023-03-21T09:08:09.406Z,14.03
2023-03-21T09:10:37.850Z,13.98
2023-03-21T09:13:13.353Z,14.07
2023-03-21T09:15:40.545Z,14.18
2023-03-21T09:18:28.302Z,13.86
2023-03-21T09:20:56.580Z,14.31
2023-03-21T09:23:23.290Z,14.36
2023-03-21T09:25:53.565Z,14.08
2023-03-21T09:28:26.712Z,14.46
2023-03-21T09:30:55.451Z,14.32
2023-03-21T09:33:27.341Z,14.19
2023-03-21T09:36:02.694Z,14.73
2023-03-21T09:38:30.800Z,15.13
2023-03-21T09:41:19.756Z,15.39
2023-03-21T09:44:18.742Z,14.64
2023-03-21T09:47:16.182Z,15.50
2023-03-21T09:49:48.536Z,15.56
2023-03-21T09:52:45.759Z,16.05
2023-03-21T09:55:35.365Z,16.26
2023-03-21T09:58:21.437Z,16.52
2023-03-21T10:01:18.283Z,16.40
2023-03-21T10:03:54.445Z,16.06
2023-03-21T10:06:34.892Z,16.87
2023-03-21T10:09:34.954Z,16.96
2023-03-21T10:15:16.145Z,17.30
2023-03-21T10:17:49.093Z,16.52
2023-03-21T10:20:32.359Z,17.33
2023-03-21T10:23:03.426Z,17.49
2023-03-21T10:25:42.563Z,17.63
2023-03-21T10:28:17.581Z,17.94
2023-03-21T10:31:04.841Z,17.25
2023-03-21T10:33:43.496Z,17.87
2023-03-21T10:36:28.004Z,17.61
2023-03-21T10:39:07.314Z,18.18
2023-03-21T10:41:35.340Z,18.25
2023-03-21T10:44:37.114Z,18.79
2023-03-21T10:47:11.811Z,18.26
2023-03-21T10:50:11.585Z,18.79
2023-03-21T10:52:41.914Z,18.96
2023-03-21T10:55:32.308Z,19.10
2023-03-21T10:58:04.217Z,19.29
2023-03-21T11:00:41.576Z,18.91
2023-03-21T11:03:24.811Z,19.14
2023-03-21T11:05:59.346Z,19.71
2023-03-21T11:08:33.013Z,19.37
2023-03-21T11:11:20.407Z,19.10
2023-03-21T11:13:57.519Z,19.73
2023-03-21T11:16:41.282Z,20.26
2023-03-21T11:19:51.941Z,20.38
2023-03-21T11:22:22.208Z,20.47
2023-03-21T11:24:59.909Z,20.38
2023-03-21T11:27:34.897Z,20.31
2023-03-21T11:30:21.710Z,20.51
2023-03-21T11:32:59.408Z,20.38
2023-03-21T11:35:32.945Z,20.05
2023-03-21T11:38:04.404Z,20.69
2023-03-21T11:40:40.493Z,20.39
2023-03-21T11:43:19.631Z,20.29
2023-03-21T11:46:00.815Z,20.80
2023-03-21T11:48:28.965Z,20.38
2023-03-21T11:54:55.913Z,21.09
2023-03-21T11:57:27.534Z,21.40
2023-03-21T12:00:00.367Z,21.62
2023-03-21T12:03:28.772Z,21.45
2023-03-21T12:06:02.353Z,21.82
2023-03-21T12:08:36.533Z,21.54
2023-03-21T12:11:44.230Z,21.48
2023-03-21T12:14:31.977Z,21.48
2023-03-21T12:17:32.737Z,21.32
2023-03-21T12:20:27.503Z,20.88
2023-03-21T12:23:18.664Z,20.58
2023-03-21T12:26:03.611Z,20.05
2023-03-21T12:28:39.087Z,20.32
2023-03-21T12:31:46.411Z,19.80
2023-03-21T12:34:22.000Z,19.93
2023-03-21T12:37:05.339Z,19.79
2023-03-21T12:39:35.688Z,19.65
2023-03-21T12:42:44.681Z,19.23
2023-03-21T12:45:47.093Z,19.47
2023-03-21T12:48:54.854Z,19.56
2023-03-21T12:51:34.719Z,19.26
2023-03-21T12:54:17.635Z,19.48
2023-03-21T12:57:08.762Z,19.43
2023-03-21T12:59:43.067Z,19.43
2023-03-21T13:02:31.506Z,19.39
2023-03-21T13:05:19.745Z,19.20
2023-03-21T13:07:59.368Z,19.33
2023-03-21T13:10:29.184Z,19.26
2023-03-21T13:13:22.926Z,19.32
2023-03-21T13:19:57.900Z,18.02
2023-03-21T13:22:34.953Z,19.03
2023-03-21T13:25:17.940Z,18.49
2023-03-21T13:28:14.349Z,18.13
2023-03-21T13:30:41.261Z,18.97
2023-03-21T13:33:22.698Z,19.00
2023-03-21T13:36:15.720Z,19.00
2023-03-21T13:38:43.465Z,18.68
2023-03-21T13:41:21.476Z,18.89
2023-03-21T13:44:27.066Z,18.72
2023-03-21T13:47:06.418Z,18.77
2023-03-21T13:49:41.453Z,18.96
2023-03-21T13:52:13.856Z,18.76
2023-03-21T13:54:57.682Z,18.52
2023-03-21T13:57:27.276Z,18.75
2023-03-21T14:00:37.742Z,18.65
2023-03-21T14:03:21.218Z,18.38
2023-03-21T14:05:55.954Z,18.85
2023-03-21T14:08:37.261Z,18.75
2023-03-21T14:11:07.427Z,18.57
2023-03-21T14:13:38.081Z,18.48
2023-03-21T14:16:31.327Z,18.74
2023-03-21T14:19:04.773Z,18.88
2023-03-21T14:21:34.284Z,18.71
2023-03-21T14:24:10.189Z,18.39
2023-03-21T14:26:44.036Z,18.08
2023-03-21T14:29:26.157Z,17.98
2023-03-21T14:32:00.754Z,18.55
2023-03-21T14:34:31.482Z,18.31
2023-03-21T14:37:32.034Z,18.25
2023-03-21T14:40:01.132Z,18.66
2023-03-21T14:45:50.102Z,18.39
2023-03-21T14:48:20.108Z,18.20
2023-03-21T14:51:04.760Z,18.56
2023-03-21T14:53:36.973Z,18.31
2023-03-21T14:59:19.672Z,18.55
2023-03-21T15:01:53.639Z,18.52
2023-03-21T15:04:21.790Z,18.56
2023-03-21T15:07:08.201Z,18.69
2023-03-21T15:09:35.206Z,18.53
2023-03-21T15:12:11.449Z,18.62
2023-03-21T15:14:42.018Z,18.58
2023-03-21T15:17:10.700Z,18.51
2023-03-21T15:19:40.039Z,18.41
2023-03-21T15:22:27.553Z,17.23
2023-03-21T15:25:08.734Z,18.40
2023-03-21T15:27:48.849Z,17.52
2023-03-21T15:30:32.907Z,17.20
2023-03-21T15:33:07.787Z,17.43
2023-03-21T15:35:58.956Z,17.74
2023-03-21T15:38:34.211Z,18.26
2023-03-21T15:41:16.686Z,16.80
2023-03-21T15:46:52.089Z,18.14
2023-03-21T15:50:04.531Z,18.18
2023-03-21T15:52:32.306Z,17.65
2023-03-21T15:55:05.998Z,17.07
2023-03-21T15:57:38.661Z,16.94
2023-03-21T16:00:36.037Z,18.13
2023-03-21T16:03:20.827Z,17.00
2023-03-21T16:06:08.838Z,18.03
2023-03-21T16:08:49.276Z,17.72
2023-03-21T16:11:25.431Z,17.11
2023-03-21T16:13:56.604Z,16.67
2023-03-21T16:16:44.711Z,17.84
2023-03-21T16:19:22.735Z,17.77
2023-03-21T16:21:49.475Z,17.80
2023-03-21T16:24:19.277Z,17.97
2023-03-21T16:26:50.970Z,17.12
2023-03-21T16:29:18.698Z,17.86
2023-03-21T16:31:51.128Z,17.16
2023-03-21T16:34:21.296Z,17.81
2023-03-21T16:36:53.603Z,17.77
2023-03-21T16:39:35.622Z,17.61
2023-03-21T16:42:02.436Z,17.09
2023-03-21T16:44:34.216Z,17.21
2023-03-21T16:47:02.397Z,17.77
2023-03-21T16:49:32.398Z,16.88
2023-03-21T16:51:59.169Z,16.64
2023-03-21T16:54:29.060Z,17.19
2023-03-21T16:56:59.682Z,17.12
2023-03-21T16:59:26.482Z,16.56
2023-03-21T17:01:54.866Z,17.60
2023-03-21T17:04:27.782Z,17.05
2023-03-21T17:07:01.937Z,16.74
2023-03-21T17:09:43.013Z,17.49
2023-03-21T17:12:18.689Z,17.50
2023-03-21T17:17:38.033Z,17.16
2023-03-21T17:20:31.273Z,16.41
2023-03-21T17:23:05.244Z,16.50
2023-03-21T17:25:38.854Z,16.86
2023-03-21T17:28:16.738Z,16.69
2023-03-21T17:30:54.808Z,17.10
2023-03-21T17:33:36.122Z,17.05
2023-03-21T17:36:03.731Z,16.09
2023-03-21T17:38:41.398Z,16.93
2023-03-21T17:41:26.098Z,15.54
2023-03-21T17:44:02.728Z,16.68
2023-03-21T17:46:52.864Z,16.02
2023-03-21T17:49:27.925Z,15.68
2023-03-21T17:52:04.884Z,16.66
2023-03-21T17:55:00.539Z,16.02
2023-03-21T17:57:38.093Z,15.65
2023-03-21T18:00:16.561Z,15.89
2023-03-21T18:02:45.972Z,16.55
2023-03-21T18:05:28.935Z,16.55
2023-03-21T18:11:59.589Z,16.11
2023-03-21T18:14:34.845Z,15.71
2023-03-21T18:17:05.565Z,15.20
2023-03-21T18:19:34.566Z,15.88
2023-03-21T18:22:07.552Z,15.93
2023-03-21T18:24:34.454Z,16.17
2023-03-21T18:27:03.672Z,15.16
2023-03-21T18:32:23.144Z,15.30
2023-03-21T18:34:49.845Z,16.14
2023-03-21T18:37:18.037Z,15.88
2023-03-21T18:39:45.963Z,15.69
2023-03-21T18:42:21.480Z,15.60
2023-03-21T18:45:41.012Z,15.58
2023-03-21T18:48:07.789Z,15.97
2023-03-21T18:50:34.754Z,15.22
2023-03-21T18:53:01.634Z,15.15
2023-03-21T18:55:45.338Z,15.10
2023-03-21T18:58:19.490Z,14.64
2023-03-21T19:00:55.436Z,14.99
2023-03-21T19:03:36.643Z,15.92
2023-03-21T19:06:08.840Z,15.86
2023-03-21T19:08:41.807Z,15.41
2023-03-21T19:11:10.141Z,15.74
2023-03-21T19:13:37.778Z,15.16
2023-03-21T19:16:11.723Z,14.50
2023-03-21T19:18:57.748Z,15.34
2023-03-21T19:21:27.296Z,15.43
2023-03-21T19:24:26.612Z,15.60
2023-03-21T19:26:56.091Z,15.63
2023-03-21T19:29:26.556Z,15.09
2023-03-21T19:31:56.281Z,14.19
2023-03-21T19:34:26.225Z,14.89
2023-03-21T19:36:53.375Z,14.55
2023-03-21T19:39:56.497Z,14.06
2023-03-21T19:42:28.650Z,15.08
2023-03-21T19:45:09.385Z,14.45
2023-03-21T19:47:41.568Z,14.40
2023-03-21T19:50:47.806Z,14.85
2023-03-21T19:52:56.912Z,14.58
2023-03-21T19:55:28.851Z,15.10
2023-03-21T19:57:59.907Z,14.72
2023-03-21T20:00:40.961Z,15.18
2023-03-21T20:03:14.331Z,14.46
2023-03-21T20:05:43.048Z,14.81
2023-03-21T20:08:24.817Z,15.14
2023-03-21T20:10:53.157Z,15.07
2023-03-21T20:13:21.256Z,15.09
2023-03-21T20:15:55.098Z,15.12
2023-03-21T20:18:26.754Z,15.12
2023-03-21T20:20:57.853Z,13.94
2023-03-21T20:23:32.090Z,13.74
2023-03-21T20:26:02.114Z,14.59
2023-03-21T20:28:33.448Z,14.42
2023-03-21T20:31:02.629Z,14.39
2023-03-21T20:33:37.428Z,14.83
2023-03-21T20:39:00.338Z,14.78
2023-03-21T20:41:30.034Z,14.58
2023-03-21T20:44:45.167Z,14.46
2023-03-21T20:46:53.641Z,14.47
2023-03-21T20:49:26.838Z,14.33
2023-03-21T20:52:51.774Z,14.49
2023-03-21T20:55:03.273Z,14.40
2023-03-21T20:57:31.529Z,14.15
2023-03-21T20:59:58.081Z,14.18
2023-03-21T21:02:30.423Z,14.24
2023-03-21T21:05:24.130Z,14.25
2023-03-21T21:07:52.882Z,13.13
2023-03-21T21:10:26.870Z,14.14
2023-03-21T21:12:53.866Z,13.47
2023-03-21T21:15:23.496Z,14.04
2023-03-21T21:18:06.415Z,13.74
2023-03-21T21:20:42.832Z,13.94
2023-03-21T21:23:10.139Z,14.24
2023-03-21T21:25:42.115Z,14.25
2023-03-21T21:28:30.513Z,14.20
2023-03-21T21:31:21.331Z,13.46
2023-03-21T21:33:50.250Z,14.06
2023-03-21T21:36:21.658Z,13.72
2023-03-21T21:38:49.437Z,13.30
2023-03-21T21:41:34.704Z,13.98
2023-03-21T21:44:25.541Z,13.00
2023-03-21T21:47:14.151Z,14.24
2023-03-21T21:52:27.089Z,13.28
2023-03-21T21:54:59.036Z,14.02
2023-03-21T21:57:27.676Z,13.50
2023-03-21T21:59:56.808Z,14.00
2023-03-21T22:02:32.238Z,13.94
2023-03-21T22:05:05.624Z,13.88
2023-03-21T22:07:37.363Z,13.34
2023-03-21T22:10:05.224Z,13.08
2023-03-21T22:12:32.710Z,13.68
2023-03-21T22:14:59.482Z,13.17
2023-03-21T22:17:28.014Z,13.28
2023-03-21T22:22:43.581Z,12.64
2023-03-21T22:25:13.915Z,13.42
2023-03-21T22:27:41.744Z,13.26
2023-03-21T22:30:14.668Z,12.78
2023-03-21T22:33:06.245Z,13.26
2023-03-21T22:35:35.913Z,13.57
2023-03-21T22:38:14.365Z,13.54
2023-03-21T22:40:44.488Z,13.53
2023-03-21T22:43:14.040Z,13.36
2023-03-21T22:45:57.157Z,13.67
2023-03-21T22:48:24.976Z,12.85
2023-03-21T22:50:54.682Z,13.36
2023-03-21T22:53:30.280Z,13.61
2023-03-21T22:55:57.045Z,13.51
2023-03-21T22:58:24.091Z,13.31
2023-03-21T23:00:52.775Z,13.43
2023-03-21T23:03:19.779Z,13.32
2023-03-21T23:05:46.724Z,13.34
2023-03-21T23:08:16.849Z,13.31
2023-03-21T23:10:46.209Z,12.44
2023-03-21T23:13:18.237Z,12.97
2023-03-21T23:16:25.636Z,12.98
2023-03-21T23:19:03.351Z,13.17
2023-03-21T23:21:51.681Z,11.81
2023-03-21T23:24:56.210Z,12.65
2023-03-21T23:27:35.533Z,13.16
2023-03-21T23:30:18.998Z,13.09
2023-03-21T23:35:40.138Z,12.90
2023-03-21T23:38:13.040Z,12.43
2023-03-21T23:40:40.651Z,12.30
2023-03-21T23:43:25.650Z,12.23
2023-03-21T23:45:54.551Z,12.84
2023-03-21T23:48:34.340Z,12.88
2023-03-21T23:53:53.645Z,12.79
2023-03-21T23:56:36.437Z,12.83
2023-03-21T23:59:06.832Z,12.50
